Time;durP1;ratioP1;P1;durP2;ratioP2;P2;SDS_P1;SDS_P2;PMS_P1;PMS_P2;Temp;Humidity;BMP_temperature;BMP_pressure;BME280_temperature;BME280_humidity;BME280_pressure;Samples;Min_cycle;Max_cycle;Signal;HPM_P1;HPM_P2
2023/06/05 00:01:46;;;;;;;3.40;1.90;;;12.50;99.90;;;;;;5074099;28;20645;-89
2023/06/05 00:04:12;;;;;;;2.75;1.60;;;12.50;99.90;;;;;;5073695;28;20274;-90
2023/06/05 00:06:38;;;;;;;3.60;2.15;;;12.40;99.90;;;;;;5075396;28;20181;-89
2023/06/05 00:09:04;;;;;;;3.95;2.30;;;12.30;99.90;;;;;;5074337;28;20505;-90
2023/06/05 00:11:31;;;;;;;2.95;1.92;;;12.10;99.90;;;;;;5074268;28;20185;-89
2023/06/05 00:13:57;;;;;;;4.22;2.00;;;12.10;99.90;;;;;;5074381;28;20162;-90
2023/06/05 00:16:23;;;;;;;1.90;1.52;;;12.10;99.90;;;;;;5074180;28;20188;-89
2023/06/05 00:18:50;;;;;;;5.78;2.03;;;12.10;99.90;;;;;;5073781;28;20192;-89
2023/06/05 00:21:16;;;;;;;3.67;1.77;;;12.20;99.90;;;;;;5074274;28;20181;-90
2023/06/05 00:23:43;;;;;;;5.40;2.20;;;12.20;99.90;;;;;;5074123;28;20259;-90
2023/06/05 00:26:08;;;;;;;3.65;1.95;;;12.20;99.90;;;;;;5074032;28;20177;-89
2023/06/05 00:28:34;;;;;;;2.92;1.80;;;12.10;99.90;;;;;;5073963;28;20183;-89
2023/06/05 00:31:01;;;;;;;2.90;1.95;;;12.10;99.90;;;;;;5073634;28;20308;-90
2023/06/05 00:33:29;;;;;;;4.00;1.90;;;12.10;99.90;;;;;;5073857;28;20522;-91
2023/06/05 00:35:55;;;;;;;3.65;1.73;;;12.00;99.90;;;;;;5073903;28;20173;-91
2023/06/05 00:38:21;;;;;;;3.53;1.70;;;12.00;99.90;;;;;;5073719;28;20625;-89
2023/06/05 00:40:47;;;;;;;2.60;2.00;;;12.00;99.90;;;;;;5073654;28;20181;-91
2023/06/05 00:43:12;;;;;;;3.75;2.00;;;11.80;99.90;;;;;;5073504;28;20181;-89
2023/06/05 00:45:38;;;;;;;2.30;1.88;;;11.70;99.90;;;;;;5073440;28;20651;-88
2023/06/05 00:48:06;;;;;;;6.05;2.10;;;11.70;99.90;;;;;;5073486;28;20584;-88
2023/06/05 00:50:33;;;;;;;4.57;2.22;;;11.60;99.90;;;;;;5073164;28;20180;-88
2023/06/05 00:53:02;;;;;;;3.90;1.90;;;11.60;99.90;;;;;;5073485;28;20184;-89
2023/06/05 00:55:27;;;;;;;3.30;1.88;;;11.60;99.90;;;;;;5073691;28;20215;-89
2023/06/05 00:57:54;;;;;;;2.35;1.83;;;11.60;99.90;;;;;;5073044;28;20231;-88
2023/06/05 01:00:20;;;;;;;2.95;2.08;;;11.70;99.90;;;;;;5073290;28;20177;-88
2023/06/05 01:02:46;;;;;;;2.53;1.92;;;11.60;99.90;;;;;;5073200;28;20628;-89
2023/06/05 01:05:14;;;;;;;2.80;1.90;;;11.40;99.90;;;;;;5073163;28;20209;-88
2023/06/05 01:07:40;;;;;;;4.30;2.10;;;11.30;99.90;;;;;;5073403;28;20173;-88
2023/06/05 01:10:10;;;;;;;2.63;1.90;;;11.30;99.90;;;;;;5073256;28;20293;-88
2023/06/05 01:12:52;;;;;;;3.58;1.90;;;11.30;99.90;;;;;;5072914;28;20234;-88
2023/06/05 01:15:18;;;;;;;6.40;2.00;;;11.20;99.90;;;;;;5073472;28;20177;-89
2023/06/05 01:17:48;;;;;;;4.47;1.80;;;11.20;99.90;;;;;;5073201;28;20177;-89
2023/06/05 01:20:13;;;;;;;2.97;1.90;;;11.20;99.90;;;;;;5072653;28;20188;-88
2023/06/05 01:22:39;;;;;;;4.93;2.38;;;11.10;99.90;;;;;;5073225;28;20173;-88
2023/06/05 01:25:07;;;;;;;2.97;2.08;;;11.10;99.90;;;;;;5072872;28;20258;-88
2023/06/05 01:28:09;;;;;;;4.30;2.10;;;11.10;99.90;;;;;;5074313;28;20169;-88
2023/06/05 01:30:40;;;;;;;4.65;2.05;;;11.10;99.90;;;;;;5067419;28;20634;-88
2023/06/05 01:33:13;;;;;;;4.18;2.10;;;11.10;99.90;;;;;;5073208;28;20607;-87
2023/06/05 01:35:40;;;;;;;2.33;1.95;;;10.90;99.90;;;;;;5072945;28;20177;-88
2023/06/05 01:38:09;;;;;;;4.22;2.17;;;10.90;99.90;;;;;;5072783;28;20181;-88
2023/06/05 01:40:36;;;;;;;8.35;2.22;;;10.80;99.90;;;;;;5073155;28;20630;-88
2023/06/05 01:43:03;;;;;;;3.33;2.10;;;10.80;99.90;;;;;;5072798;28;20603;-87
2023/06/05 01:45:30;;;;;;;2.92;1.83;;;10.80;99.90;;;;;;5074100;28;20205;-87
2023/06/05 01:47:56;;;;;;;4.00;2.10;;;10.80;99.90;;;;;;5072867;28;20219;-88
2023/06/05 01:50:22;;;;;;;7.82;2.60;;;10.80;99.90;;;;;;5072236;28;20181;-88
2023/06/05 01:52:49;;;;;;;3.88;2.10;;;10.80;99.90;;;;;;5072821;28;20227;-89
2023/06/05 01:55:23;;;;;;;2.20;1.92;;;10.80;99.90;;;;;;5072873;28;20264;-88
2023/06/05 01:57:50;;;;;;;2.63;1.70;;;10.80;99.90;;;;;;5072988;28;20242;-89
2023/06/05 02:00:17;;;;;;;3.38;2.22;;;10.80;99.90;;;;;;5072844;28;20181;-88
2023/06/05 02:02:45;;;;;;;2.97;1.98;;;10.80;99.90;;;;;;5072532;28;20230;-88
2023/06/05 02:05:12;;;;;;;4.05;2.22;;;10.80;99.90;;;;;;5072403;28;20213;-88
2023/06/05 02:07:49;;;;;;;5.50;2.03;;;10.70;99.90;;;;;;5072756;28;20177;-88
2023/06/05 02:10:15;;;;;;;2.25;1.92;;;10.70;99.90;;;;;;5075386;28;20169;-89
2023/06/05 02:12:44;;;;;;;2.53;1.67;;;10.70;99.90;;;;;;5076729;28;20181;-88
2023/06/05 02:15:12;;;;;;;4.57;2.22;;;10.70;99.90;;;;;;5076272;28;20176;-86
2023/06/05 02:17:44;;;;;;;4.00;2.35;;;10.80;99.90;;;;;;5076292;28;20181;-87
2023/06/05 02:20:15;;;;;;;6.47;2.22;;;10.80;99.90;;;;;;5076223;28;20177;-88
2023/06/05 02:22:41;;;;;;;5.70;1.98;;;10.80;99.90;;;;;;5076309;28;20173;-88
2023/06/05 02:25:08;;;;;;;6.78;2.38;;;10.80;99.90;;;;;;5076504;28;20593;-88
2023/06/05 02:27:33;;;;;;;4.28;2.17;;;10.70;99.90;;;;;;5076121;28;20181;-87
2023/06/05 02:29:59;;;;;;;6.90;2.08;;;10.70;99.90;;;;;;5075667;28;20256;-88
2023/06/05 02:32:28;;;;;;;3.83;2.20;;;10.60;99.90;;;;;;5076240;28;20169;-88
2023/06/05 02:34:57;;;;;;;4.85;2.33;;;10.50;99.90;;;;;;5075918;28;20182;-88
2023/06/05 02:37:27;;;;;;;4.07;2.20;;;10.40;99.90;;;;;;5076129;28;20204;-89
2023/06/05 02:39:53;;;;;;;4.22;1.90;;;10.40;99.90;;;;;;5075933;28;20177;-88
2023/06/05 02:42:19;;;;;;;4.53;2.25;;;10.40;99.90;;;;;;5075787;28;20177;-88
2023/06/05 02:44:46;;;;;;;3.78;2.15;;;10.30;99.90;;;;;;5075488;28;20221;-88
2023/06/05 02:47:12;;;;;;;5.20;2.33;;;10.30;99.90;;;;;;5077244;28;20256;-88
2023/06/05 02:49:38;;;;;;;3.53;2.35;;;10.30;99.90;;;;;;5075824;28;20188;-87
2023/06/05 02:52:04;;;;;;;3.63;2.38;;;10.30;99.90;;;;;;5075667;28;20624;-88
2023/06/05 02:54:31;;;;;;;4.20;1.98;;;10.40;99.90;;;;;;5075852;28;20201;-88
2023/06/05 02:57:00;;;;;;;4.32;2.38;;;10.40;99.90;;;;;;5075446;28;20177;-88
2023/06/05 02:59:27;;;;;;;3.10;2.20;;;10.40;99.90;;;;;;5075572;28;20615;-89
2023/06/05 03:01:54;;;;;;;3.17;2.30;;;10.40;99.90;;;;;;5076636;28;20184;-88
2023/06/05 03:04:21;;;;;;;5.53;2.58;;;10.40;99.90;;;;;;5075181;28;20205;-88
2023/06/05 03:06:50;;;;;;;3.25;2.60;;;10.30;99.90;;;;;;5075533;28;20175;-87
2023/06/05 03:09:17;;;;;;;3.38;2.10;;;10.20;99.90;;;;;;5075441;28;20185;-88
2023/06/05 03:11:43;;;;;;;3.70;2.50;;;10.20;99.90;;;;;;5075234;28;20177;-88
2023/06/05 03:14:09;;;;;;;2.90;1.95;;;10.10;99.90;;;;;;5075207;28;20177;-88
2023/06/05 03:16:41;;;;;;;4.70;2.53;;;10.10;99.90;;;;;;5075506;28;20638;-88
2023/06/05 03:19:08;;;;;;;3.20;2.25;;;10.10;99.90;;;;;;5075208;28;20180;-88
2023/06/05 03:21:35;;;;;;;6.68;2.97;;;10.10;99.90;;;;;;5074890;28;20275;-87
2023/06/05 03:24:01;;;;;;;4.47;2.45;;;10.10;99.90;;;;;;5074861;28;20182;-87
2023/06/05 03:26:28;;;;;;;4.23;2.13;;;10.00;99.90;;;;;;5075265;28;20207;-88
2023/06/05 03:28:54;;;;;;;7.75;2.13;;;10.00;99.90;;;;;;5075300;28;20219;-88
2023/06/05 03:31:20;;;;;;;7.15;2.78;;;10.10;99.90;;;;;;5074843;28;20221;-87
2023/06/05 03:33:46;;;;;;;7.75;2.40;;;10.00;99.90;;;;;;5074977;28;20177;-87
2023/06/05 03:36:11;;;;;;;4.43;2.08;;;10.10;99.90;;;;;;5074618;28;20205;-89
2023/06/05 03:38:37;;;;;;;6.30;2.60;;;10.10;99.90;;;;;;5074803;28;20192;-88
2023/06/05 03:41:03;;;;;;;3.63;2.50;;;10.10;99.90;;;;;;5074792;28;20188;-88
2023/06/05 03:43:28;;;;;;;3.85;2.22;;;10.00;99.90;;;;;;5074268;28;20181;-87
2023/06/05 03:45:54;;;;;;;6.15;2.42;;;10.00;99.90;;;;;;5074702;28;20254;-88
2023/06/05 03:48:20;;;;;;;4.32;2.70;;;10.00;99.90;;;;;;5074707;28;20268;-88
2023/06/05 03:50:46;;;;;;;3.05;2.13;;;10.20;99.90;;;;;;5074211;28;20216;-88
2023/06/05 03:53:13;;;;;;;4.78;2.38;;;10.30;99.90;;;;;;5074323;28;20664;-87
2023/06/05 03:55:44;;;;;;;5.90;2.55;;;10.30;99.90;;;;;;5074594;28;20173;-87
2023/06/05 03:58:15;;;;;;;5.38;2.20;;;10.20;99.90;;;;;;5074495;28;20566;-88
2023/06/05 04:00:46;;;;;;;3.45;2.17;;;10.30;99.90;;;;;;5073690;28;20180;-87
2023/06/05 04:03:12;;;;;;;4.38;2.40;;;10.30;99.90;;;;;;5074449;28;20231;-88
2023/06/05 04:05:39;;;;;;;2.47;2.03;;;10.30;99.90;;;;;;5075254;28;20197;-88
2023/06/05 04:08:09;;;;;;;5.75;2.10;;;10.30;99.90;;;;;;5074591;28;20200;-88
2023/06/05 04:10:35;;;;;;;3.75;2.53;;;10.40;99.90;;;;;;5075402;28;20169;-88
2023/06/05 04:13:02;;;;;;;6.15;2.53;;;10.40;99.90;;;;;;5074155;28;20169;-87
2023/06/05 04:15:28;;;;;;;3.95;2.33;;;10.40;99.90;;;;;;5074433;28;20185;-88
2023/06/05 04:17:55;;;;;;;3.85;2.35;;;10.50;99.90;;;;;;5074445;28;20518;-87
2023/06/05 04:20:21;;;;;;;5.28;2.58;;;10.50;99.90;;;;;;5073255;28;20177;-88
2023/06/05 04:22:47;;;;;;;4.80;2.88;;;10.60;99.90;;;;;;5075091;28;20181;-88
2023/06/05 04:25:12;;;;;;;3.20;2.45;;;10.60;99.90;;;;;;5075087;28;20519;-87
2023/06/05 04:27:40;;;;;;;4.15;2.60;;;10.60;99.90;;;;;;5074113;28;20174;-87
2023/06/05 04:30:07;;;;;;;3.38;2.22;;;10.60;99.90;;;;;;5073847;28;20236;-87
2023/06/05 04:32:34;;;;;;;5.07;2.72;;;10.70;99.90;;;;;;5072658;28;20185;-88
2023/06/05 04:35:00;;;;;;;6.20;2.72;;;10.80;99.90;;;;;;5073623;28;20181;-88
2023/06/05 04:37:26;;;;;;;4.00;2.67;;;11.00;99.90;;;;;;5074005;28;20188;-87
2023/06/05 04:39:52;;;;;;;4.25;2.97;;;11.10;99.90;;;;;;5073542;28;20177;-87
2023/06/05 04:42:18;;;;;;;5.40;2.95;;;11.20;99.90;;;;;;5073852;28;20180;-87
2023/06/05 04:44:44;;;;;;;5.05;2.95;;;11.30;99.90;;;;;;5073517;28;20550;-87
2023/06/05 04:47:09;;;;;;;4.32;2.92;;;11.60;99.90;;;;;;5074769;28;20175;-87
2023/06/05 04:49:35;;;;;;;4.90;2.80;;;11.80;99.90;;;;;;5073304;28;20173;-88
2023/06/05 04:52:01;;;;;;;3.85;3.22;;;11.90;99.90;;;;;;5073246;28;20188;-87
2023/06/05 04:54:26;;;;;;;4.35;3.00;;;12.00;99.90;;;;;;5073510;28;20275;-88
2023/06/05 04:56:52;;;;;;;4.63;2.95;;;12.10;99.90;;;;;;5074710;28;20243;-87
2023/06/05 04:59:18;;;;;;;4.55;3.08;;;12.30;99.90;;;;;;5074582;28;20533;-88
2023/06/05 05:01:44;;;;;;;4.70;3.05;;;12.40;99.90;;;;;;5073261;28;20264;-87
2023/06/05 05:04:11;;;;;;;5.60;2.90;;;12.50;99.90;;;;;;5073198;28;20181;-88
2023/06/05 05:06:38;;;;;;;5.93;2.83;;;12.60;99.90;;;;;;5073403;28;20626;-88
2023/06/05 05:09:04;;;;;;;6.90;3.00;;;12.70;99.90;;;;;;5073643;28;20620;-88
2023/06/05 05:11:30;;;;;;;4.50;2.75;;;12.70;99.90;;;;;;5073352;28;20260;-87
2023/06/05 05:13:56;;;;;;;6.82;3.05;;;12.70;99.90;;;;;;5074425;28;20174;-88
2023/06/05 05:16:22;;;;;;;5.22;2.88;;;12.80;99.90;;;;;;5073310;28;20212;-87
2023/06/05 05:18:48;;;;;;;5.80;2.92;;;12.80;99.90;;;;;;5073313;28;20254;-87
2023/06/05 05:21:14;;;;;;;4.45;2.90;;;12.90;99.90;;;;;;5073065;28;20566;-87
2023/06/05 05:23:40;;;;;;;4.68;2.70;;;12.90;99.90;;;;;;5072984;28;20635;-88
2023/06/05 05:26:07;;;;;;;5.20;2.92;;;12.90;99.90;;;;;;5072992;28;20224;-86
2023/06/05 05:28:33;;;;;;;6.68;2.78;;;12.90;99.90;;;;;;5073084;28;20207;-88
2023/06/05 05:30:58;;;;;;;6.25;2.50;;;12.90;99.90;;;;;;5072795;28;20264;-87
2023/06/05 05:33:24;;;;;;;4.85;3.00;;;12.90;99.90;;;;;;5072975;28;20188;-87
2023/06/05 05:35:50;;;;;;;6.93;2.90;;;13.00;99.90;;;;;;5072938;28;20195;-87
2023/06/05 05:38:16;;;;;;;5.50;2.70;;;13.00;99.90;;;;;;5073003;28;20256;-87
2023/06/05 05:40:41;;;;;;;12.05;3.17;;;13.20;99.90;;;;;;5074226;28;20177;-88
2023/06/05 05:43:08;;;;;;;13.90;3.30;;;13.20;99.90;;;;;;5074801;28;20547;-88
2023/06/05 05:45:33;;;;;;;6.13;2.63;;;13.30;99.90;;;;;;5077140;28;20328;-87
2023/06/05 05:47:59;;;;;;;5.90;2.65;;;13.30;99.90;;;;;;5076969;28;20574;-88
2023/06/05 05:50:25;;;;;;;6.55;2.95;;;13.30;99.90;;;;;;5077059;28;20184;-88
2023/06/05 05:52:53;;;;;;;5.63;2.80;;;13.40;99.90;;;;;;5076933;28;20172;-89
2023/06/05 05:55:18;;;;;;;4.90;2.50;;;13.50;99.90;;;;;;5077001;28;20180;-90
2023/06/05 05:57:44;;;;;;;5.63;2.80;;;13.60;99.90;;;;;;5077012;28;20172;-88
2023/06/05 06:00:12;;;;;;;7.57;3.03;;;13.60;99.90;;;;;;5076586;28;20181;-90
2023/06/05 06:02:41;;;;;;;10.45;2.88;;;13.70;99.90;;;;;;5076551;28;20504;-90
2023/06/05 06:05:08;;;;;;;4.63;1.90;;;13.80;99.90;;;;;;5077952;28;20205;-88
2023/06/05 06:07:35;;;;;;;3.92;2.60;;;13.90;99.90;;;;;;5076673;28;20169;-88
2023/06/05 06:10:01;;;;;;;5.82;2.38;;;13.90;99.90;;;;;;5077677;28;20226;-88
2023/06/05 06:12:27;;;;;;;6.00;2.65;;;14.00;99.90;;;;;;5077699;28;20201;-87
2023/06/05 06:14:54;;;;;;;4.60;2.67;;;14.20;99.90;;;;;;5077525;28;20220;-89
2023/06/05 06:17:20;;;;;;;4.80;2.40;;;14.30;99.90;;;;;;5076578;28;20177;-90
2023/06/05 06:19:48;;;;;;;7.43;2.72;;;14.40;99.90;;;;;;5075884;28;20685;-88
2023/06/05 06:22:14;;;;;;;5.70;2.60;;;14.40;99.90;;;;;;5076550;28;20177;-88
2023/06/05 06:24:42;;;;;;;3.38;2.33;;;14.50;99.90;;;;;;5076260;28;20235;-89
2023/06/05 06:27:12;;;;;;;4.80;2.40;;;14.50;99.90;;;;;;5076038;28;20176;-89
2023/06/05 06:29:52;;;;;;;6.25;2.53;;;14.60;99.90;;;;;;5075992;28;20243;-90
2023/06/05 06:32:18;;;;;;;8.25;2.50;;;14.70;99.90;;;;;;5076331;28;20291;-88
2023/06/05 06:34:44;;;;;;;7.18;2.53;;;14.80;99.90;;;;;;5076008;28;20181;-88
2023/06/05 06:37:17;;;;;;;9.32;2.70;;;14.90;99.90;;;;;;5076338;28;20169;-89
2023/06/05 06:39:43;;;;;;;5.15;2.00;;;15.00;99.90;;;;;;5075582;28;20230;-88
2023/06/05 06:42:10;;;;;;;3.60;2.13;;;15.20;99.90;;;;;;5075725;28;20191;-87
2023/06/05 06:44:37;;;;;;;5.57;2.03;;;15.30;99.90;;;;;;5075879;28;20232;-88
2023/06/05 06:47:03;;;;;;;5.57;2.35;;;15.40;99.90;;;;;;5076185;28;20215;-88
2023/06/05 06:49:29;;;;;;;4.80;2.17;;;15.60;99.90;;;;;;5077095;28;20172;-89
2023/06/05 06:51:56;;;;;;;4.53;1.92;;;15.70;99.90;;;;;;5076863;28;20177;-88
2023/06/05 06:54:22;;;;;;;5.30;2.28;;;15.90;99.90;;;;;;5076405;28;20185;-88
2023/06/05 06:56:49;;;;;;;4.03;2.50;;;16.00;99.90;;;;;;5075530;28;20204;-89
2023/06/05 06:59:15;;;;;;;3.17;1.73;;;16.20;99.90;;;;;;5075758;28;20173;-90
2023/06/05 07:01:48;;;;;;;3.15;2.28;;;16.40;99.90;;;;;;5075741;28;20268;-89
2023/06/05 07:04:20;;;;;;;5.38;2.00;;;16.60;99.90;;;;;;5075899;28;20170;-89
2023/06/05 07:06:47;;;;;;;4.15;2.10;;;16.80;99.90;;;;;;5075377;28;20173;-90
2023/06/05 07:09:13;;;;;;;5.35;2.03;;;17.10;99.90;;;;;;5075606;28;20183;-89
2023/06/05 07:11:40;;;;;;;3.40;1.88;;;17.30;99.90;;;;;;5075776;28;20268;-91
2023/06/05 07:14:07;;;;;;;4.55;1.90;;;17.50;99.90;;;;;;5075601;28;20173;-90
2023/06/05 07:16:33;;;;;;;4.38;1.85;;;17.60;99.90;;;;;;5075406;28;20188;-90
2023/06/05 07:18:59;;;;;;;6.32;1.85;;;17.80;99.90;;;;;;5075533;28;20173;-89
2023/06/05 07:21:25;;;;;;;4.70;1.65;;;17.90;99.20;;;;;;5074967;28;20188;-91
2023/06/05 07:23:51;;;;;;;4.18;1.65;;;17.90;98.70;;;;;;5075561;28;20184;-90
2023/06/05 07:26:21;;;;;;;4.72;1.80;;;18.10;98.50;;;;;;5075440;28;20576;-89
2023/06/05 07:28:48;;;;;;;3.72;1.60;;;18.20;99.00;;;;;;5075475;28;20177;-90
2023/06/05 07:31:14;;;;;;;2.95;1.63;;;18.30;98.10;;;;;;5075437;28;20229;-90
2023/06/05 07:33:41;;;;;;;3.10;1.70;;;18.50;97.70;;;;;;5075014;28;20170;-91
2023/06/05 07:36:08;;;;;;;3.17;1.80;;;18.60;97.40;;;;;;5074735;28;20185;-90
2023/06/05 07:38:34;;;;;;;2.95;1.70;;;18.80;96.80;;;;;;5075252;28;20169;-93
2023/06/05 07:41:01;;;;;;;3.13;1.77;;;19.00;96.40;;;;;;5075327;28;20184;-88
2023/06/05 07:43:27;;;;;;;2.70;1.52;;;19.10;95.60;;;;;;5075222;28;20262;-89
2023/06/05 07:45:53;;;;;;;2.47;1.55;;;19.30;96.00;;;;;;5075030;28;20209;-89
2023/06/05 07:48:19;;;;;;;2.92;1.80;;;19.40;96.70;;;;;;5074871;28;20173;-89
2023/06/05 07:50:45;;;;;;;4.18;1.67;;;19.50;95.70;;;;;;5074221;28;20269;-89
2023/06/05 07:53:11;;;;;;;4.72;1.90;;;19.60;95.20;;;;;;5074936;28;20242;-89
2023/06/05 07:55:37;;;;;;;6.88;1.80;;;19.60;93.90;;;;;;5075800;28;20223;-89
2023/06/05 07:58:02;;;;;;;2.85;1.88;;;19.70;95.70;;;;;;5074799;28;20173;-89
2023/06/05 08:00:28;;;;;;;4.90;1.88;;;19.60;93.70;;;;;;5074887;28;20557;-89
2023/06/05 08:02:54;;;;;;;8.45;1.70;;;19.80;94.00;;;;;;5074477;28;20177;-89
2023/06/05 08:05:20;;;;;;;6.35;1.92;;;20.00;92.80;;;;;;5074086;28;20259;-90
2023/06/05 08:07:46;;;;;;;4.35;1.90;;;20.10;93.20;;;;;;5073564;28;20169;-92
2023/06/05 08:10:12;;;;;;;6.15;1.65;;;20.10;92.40;;;;;;5074506;28;20170;-89
2023/06/05 08:12:39;;;;;;;3.80;1.70;;;20.20;92.50;;;;;;5074409;28;20173;-88
2023/06/05 08:15:06;;;;;;;3.63;1.90;;;20.30;92.80;;;;;;5074283;28;20184;-88
2023/06/05 08:17:31;;;;;;;7.38;2.00;;;20.40;93.40;;;;;;5074221;28;20185;-89
2023/06/05 08:19:57;;;;;;;5.45;1.70;;;20.50;94.50;;;;;;5074063;28;20310;-91
2023/06/05 08:22:23;;;;;;;6.00;1.80;;;20.50;94.10;;;;;;5074198;28;20181;-91
2023/06/05 08:24:50;;;;;;;3.20;1.60;;;20.50;93.40;;;;;;5074043;28;20232;-90
2023/06/05 08:27:19;;;;;;;3.25;1.63;;;20.70;93.90;;;;;;5074340;28;20181;-89
2023/06/05 08:29:45;;;;;;;3.58;1.38;;;20.80;91.90;;;;;;5073940;28;20619;-90
2023/06/05 08:32:10;;;;;;;9.05;1.80;;;20.80;91.50;;;;;;5073795;28;20190;-88
2023/06/05 08:34:36;;;;;;;3.53;1.73;;;21.00;91.20;;;;;;5073768;28;20637;-86
2023/06/05 08:37:02;;;;;;;3.75;1.30;;;21.20;92.00;;;;;;5073969;28;20496;-89
2023/06/05 08:39:31;;;;;;;3.17;1.50;;;21.30;90.80;;;;;;5073924;28;20661;-89
2023/06/05 08:42:02;;;;;;;2.55;1.30;;;21.50;90.30;;;;;;5073798;28;20177;-91
2023/06/05 08:44:29;;;;;;;2.30;1.42;;;21.70;89.20;;;;;;5073683;28;20667;-89
2023/06/05 08:47:01;;;;;;;2.38;1.30;;;21.80;89.90;;;;;;5073811;28;20279;-91
2023/06/05 08:49:36;;;;;;;3.53;1.42;;;21.90;87.60;;;;;;5073832;28;20172;-89
2023/06/05 08:52:05;;;;;;;4.88;1.55;;;22.00;86.80;;;;;;5073496;28;20179;-89
2023/06/05 08:54:37;;;;;;;3.53;1.50;;;22.00;84.30;;;;;;5073717;28;20232;-89
2023/06/05 08:57:05;;;;;;;3.83;1.30;;;22.10;86.40;;;;;;5073440;28;20302;-89
2023/06/05 08:59:31;;;;;;;4.88;1.30;;;22.20;85.10;;;;;;5073419;28;20176;-90
2023/06/05 09:01:57;;;;;;;2.60;1.38;;;22.20;85.80;;;;;;5073614;28;20184;-90
2023/06/05 09:04:29;;;;;;;3.20;1.40;;;22.30;85.50;;;;;;5073498;28;20227;-90
2023/06/05 09:06:57;;;;;;;4.47;1.40;;;22.30;83.50;;;;;;5073564;28;20181;-90
2023/06/05 09:09:23;;;;;;;4.35;1.70;;;22.40;83.30;;;;;;5073504;28;20196;-90
2023/06/05 09:12:05;;;;;;;4.25;1.40;;;22.30;86.20;;;;;;5073138;28;20219;-87
2023/06/05 09:14:31;;;;;;;5.43;1.40;;;22.30;84.70;;;;;;5072705;28;20262;-88
2023/06/05 09:16:58;;;;;;;3.97;1.50;;;22.50;87.10;;;;;;5074232;28;20173;-89
2023/06/05 09:19:25;;;;;;;4.78;1.40;;;22.50;82.80;;;;;;5073859;28;20165;-87
2023/06/05 09:21:55;;;;;;;1.80;1.25;;;22.70;86.50;;;;;;5073832;28;20177;-90
2023/06/05 09:24:23;;;;;;;2.58;1.27;;;22.90;81.90;;;;;;5073658;28;20267;-90
2023/06/05 09:27:03;;;;;;;2.15;1.27;;;23.10;84.00;;;;;;5074148;28;20257;-89
2023/06/05 09:29:30;;;;;;;1.92;1.27;;;22.90;78.00;;;;;;5073942;28;20165;-90
2023/06/05 09:32:09;;;;;;;3.70;1.10;;;23.00;78.70;;;;;;5074055;28;20197;-89
2023/06/05 09:34:37;;;;;;;2.85;1.23;;;23.10;76.40;;;;;;5073937;28;20319;-89
2023/06/05 09:37:13;;;;;;;2.20;1.30;;;23.10;78.50;;;;;;5073668;28;20177;-90
2023/06/05 09:39:46;;;;;;;4.07;1.30;;;23.40;78.00;;;;;;5074980;28;20172;-91
2023/06/05 09:42:12;;;;;;;7.22;1.58;;;23.40;73.50;;;;;;5073737;28;20174;-89
2023/06/05 09:44:38;;;;;;;2.42;1.38;;;23.50;76.80;;;;;;5074588;28;20204;-89
2023/06/05 09:47:08;;;;;;;4.13;1.20;;;23.50;74.30;;;;;;5073641;28;20180;-87
2023/06/05 09:49:40;;;;;;;3.45;1.42;;;23.70;75.90;;;;;;5073321;28;20908;-86
2023/06/05 09:52:08;;;;;;;5.70;1.38;;;23.80;75.50;;;;;;5072768;28;20258;-88
2023/06/05 09:54:37;;;;;;;4.57;1.25;;;23.80;73.10;;;;;;5073641;28;20173;-89
2023/06/05 09:57:11;;;;;;;2.42;1.15;;;23.90;71.00;;;;;;5073562;28;20185;-88
2023/06/05 09:59:51;;;;;;;1.95;1.00;;;23.90;72.50;;;;;;5073252;28;20177;-89
2023/06/05 10:02:19;;;;;;;1.70;1.20;;;24.00;71.40;;;;;;5073720;28;20192;-91
2023/06/05 10:04:56;;;;;;;2.85;1.27;;;24.00;71.20;;;;;;5073376;28;20246;-89
2023/06/05 10:07:30;;;;;;;2.50;1.27;;;24.10;69.10;;;;;;5073669;28;20188;-88
2023/06/05 10:09:57;;;;;;;2.47;1.27;;;24.30;66.50;;;;;;5074949;28;20160;-92
2023/06/05 10:12:24;;;;;;;2.20;1.10;;;24.40;68.30;;;;;;5073490;28;20186;-88
2023/06/05 10:14:50;;;;;;;3.72;1.20;;;24.50;68.30;;;;;;5073311;28;20199;-90
2023/06/05 10:17:19;;;;;;;3.95;1.33;;;24.60;68.70;;;;;;5074579;28;20195;-91
2023/06/05 10:19:45;;;;;;;4.60;1.60;;;24.70;67.50;;;;;;5073442;28;20177;-93
2023/06/05 10:22:13;;;;;;;3.30;1.33;;;24.70;68.40;;;;;;5073552;28;20620;-91
2023/06/05 10:24:45;;;;;;;4.88;1.08;;;24.70;68.80;;;;;;5073115;28;20193;-89
2023/06/05 10:27:16;;;;;;;2.22;1.00;;;24.50;67.30;;;;;;5073468;28;20201;-92
2023/06/05 10:30:19;;;;;;;3.08;1.20;;;24.30;65.60;;;;;;5074322;28;20193;-92
2023/06/05 10:33:19;;;;;;;2.40;1.17;;;24.30;68.10;;;;;;5076872;28;20199;-89
2023/06/05 10:36:06;;;;;;;2.10;1.20;;;24.30;69.20;;;;;;5077189;28;20223;-91
2023/06/05 10:38:41;;;;;;;2.65;1.20;;;24.50;69.40;;;;;;5077008;28;20181;-86
2023/06/05 10:41:06;;;;;;;3.53;1.30;;;24.50;66.40;;;;;;5077782;28;20168;-90
2023/06/05 10:43:52;;;;;;;2.22;1.17;;;24.70;69.20;;;;;;5076554;28;20268;-88
2023/06/05 10:46:27;;;;;;;2.22;1.10;;;24.90;68.00;;;;;;5076503;28;20708;-89
2023/06/05 10:49:23;;;;;;;1.75;1.10;;;24.90;68.50;;;;;;5076731;28;20189;-88
2023/06/05 10:51:49;;;;;;;2.58;1.20;;;25.00;64.20;;;;;;5076541;28;20279;-89
2023/06/05 10:54:38;;;;;;;3.50;1.33;;;25.10;64.70;;;;;;5076429;28;20184;-89
2023/06/05 10:57:09;;;;;;;3.00;1.10;;;25.10;64.50;;;;;;5077812;28;20169;-89
2023/06/05 10:59:39;;;;;;;1.88;1.25;;;25.00;64.10;;;;;;5076405;28;20170;-92
2023/06/05 11:02:05;;;;;;;1.77;1.17;;;25.00;66.70;;;;;;5076531;28;20170;-88
2023/06/05 11:04:43;;;;;;;4.53;1.42;;;24.90;64.30;;;;;;5075662;28;20342;-87
2023/06/05 11:07:28;;;;;;;3.30;1.25;;;25.10;63.50;;;;;;5076345;28;20177;-89
2023/06/05 11:10:11;;;;;;;3.45;1.20;;;25.20;66.10;;;;;;5076239;28;20169;-91
2023/06/05 11:12:42;;;;;;;1.65;1.20;;;25.20;64.30;;;;;;5077486;28;20268;-90
2023/06/05 11:15:11;;;;;;;5.28;1.17;;;25.30;65.20;;;;;;5077084;28;20173;-88
2023/06/05 11:17:39;;;;;;;3.70;1.30;;;25.40;66.30;;;;;;5077323;28;20845;-90
2023/06/05 11:20:29;;;;;;;1.45;1.10;;;25.50;66.40;;;;;;5076437;28;20248;-91
2023/06/05 11:22:55;;;;;;;3.20;1.35;;;25.60;66.10;;;;;;5068329;28;20234;-92
2023/06/05 11:25:21;;;;;;;2.78;1.27;;;25.70;64.00;;;;;;5077119;28;20220;-89
2023/06/05 11:27:53;;;;;;;2.10;1.20;;;25.60;65.30;;;;;;5072438;28;20615;-90
2023/06/05 11:30:22;;;;;;;4.63;1.30;;;25.60;64.50;;;;;;5060028;28;20233;-89
2023/06/05 11:32:50;;;;;;;2.83;1.20;;;25.70;63.30;;;;;;5055798;28;20181;-91
2023/06/05 11:35:16;;;;;;;1.98;1.50;;;25.80;67.90;;;;;;5055925;28;20214;-89
2023/06/05 11:37:42;;;;;;;2.92;1.10;;;25.80;64.20;;;;;;5072599;28;20757;-89
2023/06/05 11:40:11;;;;;;;1.80;1.20;;;25.90;64.50;;;;;;5072309;28;20261;-88
2023/06/05 11:42:40;;;;;;;2.38;1.30;;;25.90;62.90;;;;;;5072045;28;20220;-89
2023/06/05 11:45:11;;;;;;;3.85;1.50;;;26.00;67.10;;;;;;5055302;28;20221;-89
2023/06/05 11:47:37;;;;;;;3.58;1.50;;;26.10;64.60;;;;;;5055750;28;20518;-93
2023/06/05 11:50:17;;;;;;;3.15;1.30;;;26.20;65.00;;;;;;5074198;28;20186;-87
2023/06/05 11:52:43;;;;;;;2.95;1.35;;;25.80;61.30;;;;;;5075675;28;20252;-88
2023/06/05 11:55:32;;;;;;;2.95;1.60;;;25.90;62.10;;;;;;5075702;28;20238;-88
2023/06/05 11:57:58;;;;;;;7.43;1.30;;;25.90;63.00;;;;;;5075407;28;20177;-89
2023/06/05 12:00:26;;;;;;;2.25;1.42;;;25.90;63.50;;;;;;5074933;28;20181;-91
2023/06/05 12:02:52;;;;;;;2.35;1.33;;;26.00;63.40;;;;;;5075075;28;20616;-91
2023/06/05 12:05:18;;;;;;;1.75;1.50;;;26.00;62.50;;;;;;5075371;28;20212;-89
2023/06/05 12:07:44;;;;;;;2.47;1.52;;;26.00;63.70;;;;;;5075282;28;20184;-91
2023/06/05 12:10:14;;;;;;;2.60;1.40;;;26.10;62.90;;;;;;5076234;28;20173;-90
2023/06/05 12:12:53;;;;;;;1.95;1.40;;;26.20;61.80;;;;;;5074872;28;20174;-88
2023/06/05 12:15:21;;;;;;;3.17;1.40;;;26.10;64.50;;;;;;5074819;28;20607;-90
2023/06/05 12:17:51;;;;;;;1.95;1.20;;;26.30;65.90;;;;;;5075049;28;20250;-89
2023/06/05 12:20:17;;;;;;;1.42;1.23;;;26.30;61.70;;;;;;5076025;28;20720;-89
2023/06/05 12:22:44;;;;;;;5.45;1.60;;;26.40;63.70;;;;;;5074752;28;20217;-89
2023/06/05 12:25:23;;;;;;;2.90;1.63;;;26.40;60.70;;;;;;5074774;28;20208;-87
2023/06/05 12:27:49;;;;;;;1.98;1.40;;;26.40;65.00;;;;;;5074747;28;20172;-90
2023/06/05 12:30:16;;;;;;;2.85;1.40;;;26.50;61.00;;;;;;5074163;28;20224;-87
2023/06/05 12:32:46;;;;;;;5.68;1.40;;;26.50;61.90;;;;;;5074495;28;20177;-89
2023/06/05 12:35:27;;;;;;;3.28;1.70;;;26.40;61.40;;;;;;5074575;28;20184;-89
2023/06/05 12:37:59;;;;;;;3.67;1.60;;;26.50;65.20;;;;;;5075647;28;20179;-89
2023/06/05 12:40:25;;;;;;;1.90;1.50;;;26.50;60.90;;;;;;5074650;28;20173;-88
2023/06/05 12:42:51;;;;;;;1.70;1.40;;;26.50;62.70;;;;;;5074467;28;20675;-88
2023/06/05 12:45:17;;;;;;;2.30;1.58;;;26.60;63.50;;;;;;5075326;28;20197;-89
2023/06/05 12:47:43;;;;;;;2.70;1.30;;;26.50;61.90;;;;;;5074351;28;20647;-89
2023/06/05 12:50:12;;;;;;;3.78;1.45;;;26.40;61.30;;;;;;5074256;28;20226;-89
2023/06/05 12:52:41;;;;;;;1.30;1.13;;;26.20;62.90;;;;;;5073510;28;20181;-89